sensor_id;sensor_type;location;lat;lon;timestamp;P1;durP1;ratioP1;P2;durP2;ratioP2
2892;SDS011;1456;51.840;12.184;2023-03-13T13:53:47;0.30;;;0.30;;
2892;SDS011;1456;51.840;12.184;2023-03-13T14:01:43;0.90;;;0.90;;
2892;SDS011;1456;51.840;12.184;2023-03-13T14:04:14;1.93;;;1.83;;
2892;SDS011;1456;51.840;12.184;2023-03-13T14:06:43;1.70;;;1.70;;
2892;SDS011;1456;51.840;12.184;2023-03-13T14:09:32;1.80;;;1.80;;
2892;SDS011;1456;51.840;12.184;2023-03-13T14:12:22;1.70;;;1.70;;
2892;SDS011;1456;51.840;12.184;2023-03-13T14:15:36;2.30;;;2.30;;
2892;SDS011;1456;51.840;12.184;2023-03-13T14:17:55;3.30;;;3.30;;
2892;SDS011;1456;51.840;12.184;2023-03-13T14:23:27;2.30;;;2.30;;
2892;SDS011;1456;51.840;12.184;2023-03-13T14:25:58;1.57;;;1.57;;
2892;SDS011;1456;51.840;12.184;2023-03-13T14:29:00;1.00;;;1.00;;
2892;SDS011;1456;51.840;12.184;2023-03-13T14:31:28;0.90;;;0.90;;
2892;SDS011;1456;51.840;12.184;2023-03-13T14:34:08;1.00;;;1.00;;
2892;SDS011;1456;51.840;12.184;2023-03-13T14:39:20;0.90;;;0.90;;
2892;SDS011;1456;51.840;12.184;2023-03-13T14:42:08;2.87;;;2.70;;
2892;SDS011;1456;51.840;12.184;2023-03-13T14:44:36;2.30;;;2.30;;
2892;SDS011;1456;51.840;12.184;2023-03-13T14:47:13;8.10;;;8.00;;
2892;SDS011;1456;51.840;12.184;2023-03-13T14:50:04;7.90;;;7.80;;
2892;SDS011;1456;51.840;12.184;2023-03-13T14:52:37;6.60;;;6.60;;
2892;SDS011;1456;51.840;12.184;2023-03-13T14:57:56;3.90;;;3.80;;
2892;SDS011;1456;51.840;12.184;2023-03-13T15:05:46;1.20;;;1.20;;
2892;SDS011;1456;51.840;12.184;2023-03-13T15:08:31;0.50;;;0.50;;
2892;SDS011;1456;51.840;12.184;2023-03-13T15:11:01;0.30;;;0.30;;
2892;SDS011;1456;51.840;12.184;2023-03-13T15:13:37;0.40;;;0.40;;
2892;SDS011;1456;51.840;12.184;2023-03-13T15:16:12;0.40;;;0.40;;
2892;SDS011;1456;51.840;12.184;2023-03-13T15:18:41;0.50;;;0.50;;
2892;SDS011;1456;51.840;12.184;2023-03-13T15:26:29;0.40;;;0.40;;
2892;SDS011;1456;51.840;12.184;2023-03-13T15:31:22;0.50;;;0.50;;
2892;SDS011;1456;51.840;12.184;2023-03-13T15:33:53;0.53;;;0.53;;
2892;SDS011;1456;51.840;12.184;2023-03-13T15:36:21;0.40;;;0.40;;
2892;SDS011;1456;51.840;12.184;2023-03-13T15:38:47;0.30;;;0.30;;
2892;SDS011;1456;51.840;12.184;2023-03-13T15:41:15;0.40;;;0.40;;
2892;SDS011;1456;51.840;12.184;2023-03-13T15:46:16;0.30;;;0.30;;
2892;SDS011;1456;51.840;12.184;2023-03-13T15:48:43;0.40;;;0.40;;
2892;SDS011;1456;51.840;12.184;2023-03-13T15:51:09;0.30;;;0.30;;
2892;SDS011;1456;51.840;12.184;2023-03-13T15:53:38;0.40;;;0.40;;
2892;SDS011;1456;51.840;12.184;2023-03-13T15:56:10;0.30;;;0.30;;
2892;SDS011;1456;51.840;12.184;2023-03-13T15:58:37;0.40;;;0.40;;
2892;SDS011;1456;51.840;12.184;2023-03-13T16:01:04;0.87;;;0.87;;
2892;SDS011;1456;51.840;12.184;2023-03-13T16:03:31;0.30;;;0.30;;
2892;SDS011;1456;51.840;12.184;2023-03-13T16:05:57;0.30;;;0.30;;
2892;SDS011;1456;51.840;12.184;2023-03-13T16:08:24;0.40;;;0.40;;
2892;SDS011;1456;51.840;12.184;2023-03-13T16:10:52;0.50;;;0.50;;
2892;SDS011;1456;51.840;12.184;2023-03-13T16:35:24;0.50;;;0.50;;
2892;SDS011;1456;51.840;12.184;2023-03-13T16:40:19;0.30;;;0.30;;
2892;SDS011;1456;51.840;12.184;2023-03-13T16:42:48;0.90;;;0.50;;
2892;SDS011;1456;51.840;12.184;2023-03-13T16:45:14;0.30;;;0.20;;
2892;SDS011;1456;51.840;12.184;2023-03-13T16:47:42;0.40;;;0.40;;
2892;SDS011;1456;51.840;12.184;2023-03-13T16:52:46;0.47;;;0.47;;
2892;SDS011;1456;51.840;12.184;2023-03-13T16:55:12;0.30;;;0.30;;
2892;SDS011;1456;51.840;12.184;2023-03-13T16:57:38;0.40;;;0.40;;
2892;SDS011;1456;51.840;12.184;2023-03-13T17:00:13;0.50;;;0.50;;
2892;SDS011;1456;51.840;12.184;2023-03-13T17:02:47;0.37;;;0.33;;
2892;SDS011;1456;51.840;12.184;2023-03-13T17:05:13;0.60;;;0.60;;
2892;SDS011;1456;51.840;12.184;2023-03-13T17:07:44;0.30;;;0.30;;
2892;SDS011;1456;51.840;12.184;2023-03-13T17:10:17;0.67;;;0.63;;
2892;SDS011;1456;51.840;12.184;2023-03-13T17:12:49;0.50;;;0.50;;
2892;SDS011;1456;51.840;12.184;2023-03-13T17:15:15;0.77;;;0.67;;
2892;SDS011;1456;51.840;12.184;2023-03-13T17:17:43;1.03;;;0.93;;
2892;SDS011;1456;51.840;12.184;2023-03-13T17:20:22;1.57;;;1.40;;
2892;SDS011;1456;51.840;12.184;2023-03-13T17:22:50;0.85;;;0.80;;
2892;SDS011;1456;51.840;12.184;2023-03-13T17:25:16;0.80;;;0.80;;
2892;SDS011;1456;51.840;12.184;2023-03-13T17:27:43;0.30;;;0.27;;
2892;SDS011;1456;51.840;12.184;2023-03-13T17:30:29;0.30;;;0.30;;
2892;SDS011;1456;51.840;12.184;2023-03-13T17:32:57;0.30;;;0.20;;
2892;SDS011;1456;51.840;12.184;2023-03-13T17:35:23;0.97;;;0.97;;
2892;SDS011;1456;51.840;12.184;2023-03-13T17:37:50;1.33;;;0.60;;
2892;SDS011;1456;51.840;12.184;2023-03-13T17:40:17;0.53;;;0.47;;
2892;SDS011;1456;51.840;12.184;2023-03-13T17:42:43;0.30;;;0.30;;
